sensor_id;sensor_type;location;lat;lon;timestamp;pressure;altitude;pressure_sealevel;temperature;humidity
35694;BME280;21812;55.536;37.664;2023-05-11T00:01:50;100391.00;;;12.30;50.80
35694;BME280;21812;55.536;37.664;2023-05-11T00:04:15;100400.19;;;12.73;50.21
35694;BME280;21812;55.536;37.664;2023-05-11T00:06:41;100393.91;;;13.02;50.11
35694;BME280;21812;55.536;37.664;2023-05-11T00:09:07;100398.28;;;13.24;49.42
35694;BME280;21812;55.536;37.664;2023-05-11T00:11:34;100400.13;;;13.39;50.72
35694;BME280;21812;55.536;37.664;2023-05-11T00:14:00;100404.56;;;13.75;50.55
35694;BME280;21812;55.536;37.664;2023-05-11T00:16:26;100396.84;;;13.93;48.28
35694;BME280;21812;55.536;37.664;2023-05-11T00:18:51;100396.47;;;13.96;47.89
35694;BME280;21812;55.536;37.664;2023-05-11T00:21:17;100393.94;;;13.88;48.49
35694;BME280;21812;55.536;37.664;2023-05-11T00:23:43;100392.34;;;13.72;48.93
35694;BME280;21812;55.536;37.664;2023-05-11T00:26:09;100394.56;;;13.68;49.10
35694;BME280;21812;55.536;37.664;2023-05-11T00:28:35;100393.72;;;13.61;49.47
35694;BME280;21812;55.536;37.664;2023-05-11T00:31:01;100388.09;;;13.56;49.02
35694;BME280;21812;55.536;37.664;2023-05-11T00:33:27;100396.78;;;13.58;49.76
35694;BME280;21812;55.536;37.664;2023-05-11T00:35:53;100392.81;;;13.54;50.11
35694;BME280;21812;55.536;37.664;2023-05-11T00:38:18;100394.66;;;13.32;50.05
35694;BME280;21812;55.536;37.664;2023-05-11T00:40:44;100387.28;;;12.98;50.20
35694;BME280;21812;55.536;37.664;2023-05-11T00:43:10;100395.16;;;12.84;50.87
35694;BME280;21812;55.536;37.664;2023-05-11T00:45:36;100389.81;;;12.84;51.17
35694;BME280;21812;55.536;37.664;2023-05-11T00:48:02;100397.69;;;13.07;50.57
35694;BME280;21812;55.536;37.664;2023-05-11T00:50:28;100400.22;;;13.30;51.09
35694;BME280;21812;55.536;37.664;2023-05-11T00:52:54;100403.28;;;13.49;51.01
35694;BME280;21812;55.536;37.664;2023-05-11T00:55:20;100397.66;;;13.44;50.36
35694;BME280;21812;55.536;37.664;2023-05-11T00:57:47;100403.19;;;13.21;49.38
35694;BME280;21812;55.536;37.664;2023-05-11T01:00:12;100404.50;;;12.88;50.03
35694;BME280;21812;55.536;37.664;2023-05-11T01:02:39;100407.66;;;12.77;50.13
35694;BME280;21812;55.536;37.664;2023-05-11T01:05:06;100402.19;;;12.85;50.49
35694;BME280;21812;55.536;37.664;2023-05-11T01:10:37;100406.91;;;13.20;50.26
35694;BME280;21812;55.536;37.664;2023-05-11T01:13:17;100410.28;;;13.07;49.48
35694;BME280;21812;55.536;37.664;2023-05-11T01:15:51;100418.78;;;13.10;49.03
35694;BME280;21812;55.536;37.664;2023-05-11T01:18:27;100408.41;;;13.07;48.99
35694;BME280;21812;55.536;37.664;2023-05-11T01:21:00;100407.50;;;13.00;49.55
35694;BME280;21812;55.536;37.664;2023-05-11T01:31:33;100407.97;;;13.04;49.37
35694;BME280;21812;55.536;37.664;2023-05-11T01:34:06;100406.81;;;13.13;50.02
35694;BME280;21812;55.536;37.664;2023-05-11T01:36:38;100387.38;;;13.04;49.35
35694;BME280;21812;55.536;37.664;2023-05-11T01:39:08;100406.59;;;13.08;49.31
35694;BME280;21812;55.536;37.664;2023-05-11T01:41:37;100341.09;;;12.44;49.51
35694;BME280;21812;55.536;37.664;2023-05-11T01:44:06;100389.34;;;12.81;49.84
35694;BME280;21812;55.536;37.664;2023-05-11T01:46:33;100418.94;;;12.87;49.29
35694;BME280;21812;55.536;37.664;2023-05-11T01:49:01;100390.53;;;12.57;50.22
35694;BME280;21812;55.536;37.664;2023-05-11T01:51:32;100417.09;;;12.73;50.53
35694;BME280;21812;55.536;37.664;2023-05-11T01:53:59;100416.16;;;12.66;50.00
35694;BME280;21812;55.536;37.664;2023-05-11T01:56:26;100408.81;;;12.68;50.55
35694;BME280;21812;55.536;37.664;2023-05-11T01:58:54;100379.41;;;12.60;49.93
35694;BME280;21812;55.536;37.664;2023-05-11T02:01:21;100412.94;;;12.70;50.45
35694;BME280;21812;55.536;37.664;2023-05-11T02:03:48;100377.59;;;12.45;50.42
35694;BME280;21812;55.536;37.664;2023-05-11T02:06:16;100416.16;;;12.66;49.69
35694;BME280;21812;55.536;37.664;2023-05-11T02:08:44;100410.25;;;12.70;50.02
35694;BME280;21812;55.536;37.664;2023-05-11T02:11:12;100416.72;;;12.76;50.95
35694;BME280;21812;55.536;37.664;2023-05-11T02:13:41;100419.75;;;12.88;50.77
35694;BME280;21812;55.536;37.664;2023-05-11T02:16:08;100415.66;;;12.92;49.71
35694;BME280;21812;55.536;37.664;2023-05-11T02:18:38;100401.91;;;12.95;50.16
35694;BME280;21812;55.536;37.664;2023-05-11T02:21:07;100408.03;;;13.10;49.78
35694;BME280;21812;55.536;37.664;2023-05-11T02:23:35;100399.38;;;13.08;50.07
35694;BME280;21812;55.536;37.664;2023-05-11T02:26:02;100408.97;;;13.18;50.44
35694;BME280;21812;55.536;37.664;2023-05-11T02:28:29;100403.13;;;13.14;50.99
35694;BME280;21812;55.536;37.664;2023-05-11T02:30:59;100392.78;;;13.11;50.69
35694;BME280;21812;55.536;37.664;2023-05-11T02:33:33;100406.06;;;13.19;50.84
35694;BME280;21812;55.536;37.664;2023-05-11T02:36:00;100406.47;;;13.16;50.42
35694;BME280;21812;55.536;37.664;2023-05-11T02:38:32;100380.78;;;13.07;49.98
35694;BME280;21812;55.536;37.664;2023-05-11T02:41:03;100405.13;;;13.27;50.45
35694;BME280;21812;55.536;37.664;2023-05-11T02:43:34;100411.72;;;13.46;51.10
35694;BME280;21812;55.536;37.664;2023-05-11T02:46:05;100386.88;;;13.37;51.14
35694;BME280;21812;55.536;37.664;2023-05-11T02:48:37;100405.19;;;13.55;49.63
35694;BME280;21812;55.536;37.664;2023-05-11T02:51:06;100398.06;;;13.41;50.06
35694;BME280;21812;55.536;37.664;2023-05-11T02:53:39;100416.41;;;13.87;49.59
35694;BME280;21812;55.536;37.664;2023-05-11T02:56:07;100416.53;;;13.51;50.22
35694;BME280;21812;55.536;37.664;2023-05-11T02:58:34;100417.09;;;13.46;50.71
35694;BME280;21812;55.536;37.664;2023-05-11T03:01:12;100414.84;;;13.49;51.64
35694;BME280;21812;55.536;37.664;2023-05-11T03:03:38;100405.78;;;13.51;51.64
35694;BME280;21812;55.536;37.664;2023-05-11T03:06:03;100411.72;;;13.46;51.66
35694;BME280;21812;55.536;37.664;2023-05-11T03:08:29;100417.09;;;13.46;51.04
35694;BME280;21812;55.536;37.664;2023-05-11T03:10:56;100394.75;;;13.39;50.44
35694;BME280;21812;55.536;37.664;2023-05-11T03:13:24;100415.56;;;13.58;52.24
35694;BME280;21812;55.536;37.664;2023-05-11T03:15:53;100421.41;;;13.68;52.23
35694;BME280;21812;55.536;37.664;2023-05-11T03:18:21;100402.69;;;13.75;52.95
35694;BME280;21812;55.536;37.664;2023-05-11T03:20:47;100425.66;;;14.06;53.14
35694;BME280;21812;55.536;37.664;2023-05-11T03:23:15;100438.34;;;14.19;53.03
35694;BME280;21812;55.536;37.664;2023-05-11T03:25:43;100436.03;;;14.16;53.22
35694;BME280;21812;55.536;37.664;2023-05-11T03:28:11;100386.00;;;13.80;53.49
35694;BME280;21812;55.536;37.664;2023-05-11T03:30:39;100424.41;;;14.08;53.22
35694;BME280;21812;55.536;37.664;2023-05-11T03:33:07;100433.00;;;14.25;54.07
35694;BME280;21812;55.536;37.664;2023-05-11T03:35:34;100428.63;;;14.18;54.85
35694;BME280;21812;55.536;37.664;2023-05-11T03:38:03;100414.16;;;14.19;54.39
35694;BME280;21812;55.536;37.664;2023-05-11T03:40:30;100433.88;;;14.61;56.37
35694;BME280;21812;55.536;37.664;2023-05-11T03:43:01;100426.75;;;14.88;54.18
35694;BME280;21812;55.536;37.664;2023-05-11T03:45:29;100432.59;;;15.05;54.59
35694;BME280;21812;55.536;37.664;2023-05-11T03:47:56;100435.72;;;15.09;53.13
35694;BME280;21812;55.536;37.664;2023-05-11T03:50:22;100439.72;;;15.33;54.17
35694;BME280;21812;55.536;37.664;2023-05-11T03:52:49;100432.50;;;15.47;52.59
35694;BME280;21812;55.536;37.664;2023-05-11T03:55:15;100434.75;;;15.43;50.92
35694;BME280;21812;55.536;37.664;2023-05-11T03:57:41;100446.78;;;15.47;50.59
35694;BME280;21812;55.536;37.664;2023-05-11T04:00:09;100417.75;;;15.22;46.87
35694;BME280;21812;55.536;37.664;2023-05-11T04:02:41;100442.34;;;15.06;48.36
35694;BME280;21812;55.536;37.664;2023-05-11T04:05:08;100441.56;;;14.77;47.86
35694;BME280;21812;55.536;37.664;2023-05-11T04:07:36;100449.19;;;14.60;46.86
35694;BME280;21812;55.536;37.664;2023-05-11T04:10:03;100450.63;;;14.70;48.06
35694;BME280;21812;55.536;37.664;2023-05-11T04:12:29;100445.81;;;15.00;48.04
35694;BME280;21812;55.536;37.664;2023-05-11T04:14:55;100450.41;;;15.13;47.38
35694;BME280;21812;55.536;37.664;2023-05-11T04:17:21;100454.59;;;15.29;48.29
35694;BME280;21812;55.536;37.664;2023-05-11T04:19:47;100445.88;;;15.20;46.01
35694;BME280;21812;55.536;37.664;2023-05-11T04:22:12;100453.09;;;15.13;45.27
35694;BME280;21812;55.536;37.664;2023-05-11T04:24:38;100448.38;;;15.28;47.00
35694;BME280;21812;55.536;37.664;2023-05-11T04:27:04;100448.03;;;15.44;45.12
35694;BME280;21812;55.536;37.664;2023-05-11T04:29:30;100449.22;;;15.42;44.66
35694;BME280;21812;55.536;37.664;2023-05-11T04:31:56;100448.88;;;15.52;46.38
35694;BME280;21812;55.536;37.664;2023-05-11T04:34:23;100455.50;;;15.62;46.64
35694;BME280;21812;55.536;37.664;2023-05-11T04:36:49;100453.41;;;15.51;44.43
35694;BME280;21812;55.536;37.664;2023-05-11T04:39:16;100437.84;;;15.40;46.64
35694;BME280;21812;55.536;37.664;2023-05-11T04:41:42;100455.63;;;15.34;45.55
35694;BME280;21812;55.536;37.664;2023-05-11T04:44:09;100459.78;;;15.23;45.32
35694;BME280;21812;55.536;37.664;2023-05-11T04:46:35;100456.91;;;15.38;45.86
35694;BME280;21812;55.536;37.664;2023-05-11T04:49:04;100451.56;;;15.58;43.86
35694;BME280;21812;55.536;37.664;2023-05-11T04:51:31;100451.34;;;15.67;43.52
35694;BME280;21812;55.536;37.664;2023-05-11T04:53:58;100442.47;;;15.59;44.30
35694;BME280;21812;55.536;37.664;2023-05-11T04:56:24;100459.84;;;15.63;42.98
35694;BME280;21812;55.536;37.664;2023-05-11T04:58:51;100464.44;;;15.83;45.96
35694;BME280;21812;55.536;37.664;2023-05-11T05:01:16;100458.03;;;15.91;44.20
35694;BME280;21812;55.536;37.664;2023-05-11T05:03:42;100452.00;;;15.82;43.59
35694;BME280;21812;55.536;37.664;2023-05-11T05:06:08;100456.56;;;15.95;45.36
35694;BME280;21812;55.536;37.664;2023-05-11T05:08:35;100457.56;;;16.40;54.98
35694;BME280;21812;55.536;37.664;2023-05-11T05:11:01;100459.66;;;17.04;56.29
35694;BME280;21812;55.536;37.664;2023-05-11T05:13:27;100458.78;;;17.16;42.98
35694;BME280;21812;55.536;37.664;2023-05-11T05:15:53;100447.81;;;17.11;40.95
35694;BME280;21812;55.536;37.664;2023-05-11T05:18:18;100453.09;;;16.93;39.63
35694;BME280;21812;55.536;37.664;2023-05-11T05:20:46;100438.44;;;16.62;39.68
35694;BME280;21812;55.536;37.664;2023-05-11T05:23:12;100443.44;;;16.52;39.34
35694;BME280;21812;55.536;37.664;2023-05-11T05:25:38;100445.53;;;16.50;40.33
35694;BME280;21812;55.536;37.664;2023-05-11T05:28:05;100441.38;;;16.47;40.21
35694;BME280;21812;55.536;37.664;2023-05-11T05:30:30;100440.13;;;16.50;39.44
35694;BME280;21812;55.536;37.664;2023-05-11T05:32:58;100433.91;;;16.42;39.08
35694;BME280;21812;55.536;37.664;2023-05-11T05:35:24;100435.59;;;16.37;38.79
35694;BME280;21812;55.536;37.664;2023-05-11T05:37:50;100424.59;;;16.38;38.41
35694;BME280;21812;55.536;37.664;2023-05-11T05:40:16;100429.59;;;16.35;38.49
35694;BME280;21812;55.536;37.664;2023-05-11T05:42:46;100429.16;;;16.38;37.27
35694;BME280;21812;55.536;37.664;2023-05-11T05:45:16;100430.59;;;16.40;37.78
35694;BME280;21812;55.536;37.664;2023-05-11T05:47:42;100434.13;;;16.48;38.03
35694;BME280;21812;55.536;37.664;2023-05-11T05:50:08;100431.41;;;16.54;37.96
35694;BME280;21812;55.536;37.664;2023-05-11T05:52:34;100434.09;;;16.54;37.06
35694;BME280;21812;55.536;37.664;2023-05-11T05:55:01;100432.25;;;16.55;37.46
35694;BME280;21812;55.536;37.664;2023-05-11T05:57:30;100432.41;;;16.60;38.17
35694;BME280;21812;55.536;37.664;2023-05-11T05:59:57;100427.25;;;16.52;37.97
35694;BME280;21812;55.536;37.664;2023-05-11T06:02:22;100432.69;;;16.45;38.01
35694;BME280;21812;55.536;37.664;2023-05-11T06:04:48;100442.22;;;16.41;37.82
35694;BME280;21812;55.536;37.664;2023-05-11T06:07:14;100435.19;;;16.33;38.46
35694;BME280;21812;55.536;37.664;2023-05-11T06:09:40;100436.47;;;16.24;39.21
35694;BME280;21812;55.536;37.664;2023-05-11T06:12:05;100441.88;;;16.11;39.17
35694;BME280;21812;55.536;37.664;2023-05-11T06:14:34;100452.22;;;16.14;40.13
35694;BME280;21812;55.536;37.664;2023-05-11T06:17:01;100460.50;;;16.19;40.27
35694;BME280;21812;55.536;37.664;2023-05-11T06:19:28;100454.69;;;16.29;39.91
35694;BME280;21812;55.536;37.664;2023-05-11T06:21:54;100455.91;;;16.33;39.93
35694;BME280;21812;55.536;37.664;2023-05-11T06:24:20;100457.97;;;16.44;40.44
35694;BME280;21812;55.536;37.664;2023-05-11T06:26:46;100456.72;;;16.47;40.41
35694;BME280;21812;55.536;37.664;2023-05-11T06:29:13;100460.22;;;16.54;39.65
35694;BME280;21812;55.536;37.664;2023-05-11T06:31:39;100457.69;;;16.66;39.32
35694;BME280;21812;55.536;37.664;2023-05-11T06:34:06;100459.97;;;16.75;39.12
35694;BME280;21812;55.536;37.664;2023-05-11T06:36:34;100456.00;;;16.85;40.45
35694;BME280;21812;55.536;37.664;2023-05-11T06:39:00;100453.88;;;17.00;39.68
35694;BME280;21812;55.536;37.664;2023-05-11T06:41:26;100455.91;;;17.11;38.26
35694;BME280;21812;55.536;37.664;2023-05-11T06:43:52;100454.00;;;17.18;38.81
35694;BME280;21812;55.536;37.664;2023-05-11T06:46:26;100449.00;;;17.22;37.32
35694;BME280;21812;55.536;37.664;2023-05-11T06:48:52;100454.13;;;17.30;36.87
35694;BME280;21812;55.536;37.664;2023-05-11T06:51:18;100452.19;;;17.44;37.45
35694;BME280;21812;55.536;37.664;2023-05-11T06:53:46;100456.91;;;17.55;36.51
35694;BME280;21812;55.536;37.664;2023-05-11T06:56:12;100447.03;;;17.68;38.81
35694;BME280;21812;55.536;37.664;2023-05-11T06:58:38;100441.13;;;17.52;36.38
35694;BME280;21812;55.536;37.664;2023-05-11T07:01:03;100456.34;;;17.40;36.21
35694;BME280;21812;55.536;37.664;2023-05-11T07:03:33;100454.41;;;17.22;38.64
35694;BME280;21812;55.536;37.664;2023-05-11T07:05:59;100456.06;;;17.23;37.01
35694;BME280;21812;55.536;37.664;2023-05-11T07:08:24;100456.00;;;17.30;37.54
35694;BME280;21812;55.536;37.664;2023-05-11T07:10:51;100458.91;;;17.35;36.96
35694;BME280;21812;55.536;37.664;2023-05-11T07:13:16;100449.06;;;17.47;36.14
35694;BME280;21812;55.536;37.664;2023-05-11T07:15:42;100446.72;;;17.57;37.12
35694;BME280;21812;55.536;37.664;2023-05-11T07:18:08;100457.84;;;17.68;36.17
35694;BME280;21812;55.536;37.664;2023-05-11T07:20:34;100454.97;;;17.63;35.57
35694;BME280;21812;55.536;37.664;2023-05-11T07:23:04;100457.63;;;17.69;37.24
35694;BME280;21812;55.536;37.664;2023-05-11T07:25:30;100452.22;;;17.69;36.86
35694;BME280;21812;55.536;37.664;2023-05-11T07:27:56;100456.56;;;17.70;35.93
35694;BME280;21812;55.536;37.664;2023-05-11T07:30:21;100458.44;;;17.70;37.02
35694;BME280;21812;55.536;37.664;2023-05-11T07:32:48;100458.44;;;17.70;36.63
35694;BME280;21812;55.536;37.664;2023-05-11T07:35:14;100458.03;;;17.73;35.44
35694;BME280;21812;55.536;37.664;2023-05-11T07:37:40;100462.16;;;17.75;36.16
35694;BME280;21812;55.536;37.664;2023-05-11T07:40:07;100454.03;;;17.75;37.07
35694;BME280;21812;55.536;37.664;2023-05-11T07:42:32;100460.13;;;17.71;36.03
35694;BME280;21812;55.536;37.664;2023-05-11T07:44:58;100457.41;;;17.71;37.02
35694;BME280;21812;55.536;37.664;2023-05-11T07:47:24;100455.53;;;17.71;35.50
35694;BME280;21812;55.536;37.664;2023-05-11T07:49:50;100458.44;;;17.70;35.64
35694;BME280;21812;55.536;37.664;2023-05-11T07:52:16;100461.56;;;17.67;35.32
35694;BME280;21812;55.536;37.664;2023-05-11T07:54:42;100451.31;;;17.82;35.65
35694;BME280;21812;55.536;37.664;2023-05-11T07:57:08;100452.88;;;17.96;36.67
35694;BME280;21812;55.536;37.664;2023-05-11T07:59:36;100463.13;;;18.13;34.95
35694;BME280;21812;55.536;37.664;2023-05-11T08:02:04;100461.34;;;18.25;35.17
35694;BME280;21812;55.536;37.664;2023-05-11T08:04:30;100457.91;;;18.36;34.26
35694;BME280;21812;55.536;37.664;2023-05-11T08:06:56;100448.97;;;18.36;33.99
35694;BME280;21812;55.536;37.664;2023-05-11T08:09:23;100452.97;;;18.52;34.18
35694;BME280;21812;55.536;37.664;2023-05-11T08:11:48;100445.91;;;18.69;34.56
35694;BME280;21812;55.536;37.664;2023-05-11T08:14:14;100437.66;;;18.83;34.44
35694;BME280;21812;55.536;37.664;2023-05-11T08:16:40;100441.84;;;18.97;35.35
35694;BME280;21812;55.536;37.664;2023-05-11T08:19:05;100439.53;;;19.01;34.13
35694;BME280;21812;55.536;37.664;2023-05-11T08:21:31;100444.56;;;18.97;33.16
35694;BME280;21812;55.536;37.664;2023-05-11T08:23:57;100446.16;;;18.86;32.41
35694;BME280;21812;55.536;37.664;2023-05-11T08:26:23;100438.19;;;18.91;31.89
35694;BME280;21812;55.536;37.664;2023-05-11T08:28:49;100438.59;;;19.07;31.80
35694;BME280;21812;55.536;37.664;2023-05-11T08:31:17;100444.41;;;18.92;31.23
35694;BME280;21812;55.536;37.664;2023-05-11T08:33:43;100440.50;;;18.88;34.27
35694;BME280;21812;55.536;37.664;2023-05-11T08:36:09;100440.41;;;18.76;34.00
35694;BME280;21812;55.536;37.664;2023-05-11T08:38:37;100451.31;;;18.69;34.24
35694;BME280;21812;55.536;37.664;2023-05-11T08:41:04;100447.41;;;18.65;34.86
35694;BME280;21812;55.536;37.664;2023-05-11T08:43:31;100440.03;;;18.54;35.22
35694;BME280;21812;55.536;37.664;2023-05-11T08:46:02;100440.56;;;18.63;35.27
35694;BME280;21812;55.536;37.664;2023-05-11T08:48:29;100443.88;;;18.65;34.57
35694;BME280;21812;55.536;37.664;2023-05-11T08:50:56;100436.59;;;18.65;35.36
35694;BME280;21812;55.536;37.664;2023-05-11T08:53:21;100427.94;;;18.75;34.95
35694;BME280;21812;55.536;37.664;2023-05-11T08:55:49;100422.91;;;18.97;34.92
35694;BME280;21812;55.536;37.664;2023-05-11T08:58:18;100407.03;;;19.31;33.66
35694;BME280;21812;55.536;37.664;2023-05-11T09:00:50;100418.75;;;19.55;33.89
35694;BME280;21812;55.536;37.664;2023-05-11T09:03:17;100421.94;;;19.64;34.20
35694;BME280;21812;55.536;37.664;2023-05-11T09:05:45;100417.25;;;19.71;34.29
35694;BME280;21812;55.536;37.664;2023-05-11T09:08:12;100416.34;;;19.77;32.48
35694;BME280;21812;55.536;37.664;2023-05-11T09:10:38;100417.72;;;19.68;34.01
35694;BME280;21812;55.536;37.664;2023-05-11T09:13:05;100426.25;;;19.41;34.46
35694;BME280;21812;55.536;37.664;2023-05-11T09:15:31;100428.31;;;18.97;33.00
35694;BME280;21812;55.536;37.664;2023-05-11T09:17:56;100425.75;;;18.65;34.36
35694;BME280;21812;55.536;37.664;2023-05-11T09:20:29;100428.63;;;18.70;34.33
35694;BME280;21812;55.536;37.664;2023-05-11T09:22:59;100413.97;;;18.78;35.03
35694;BME280;21812;55.536;37.664;2023-05-11T09:25:26;100410.97;;;18.86;34.06
35694;BME280;21812;55.536;37.664;2023-05-11T09:27:53;100410.44;;;18.78;35.04
35694;BME280;21812;55.536;37.664;2023-05-11T09:30:22;100412.25;;;18.84;36.39
35694;BME280;21812;55.536;37.664;2023-05-11T09:32:50;100402.00;;;19.04;36.30
35694;BME280;21812;55.536;37.664;2023-05-11T09:35:26;100395.47;;;19.24;34.62
35694;BME280;21812;55.536;37.664;2023-05-11T09:38:11;100382.09;;;19.29;35.06
35694;BME280;21812;55.536;37.664;2023-05-11T09:40:42;100389.88;;;19.07;34.66
35694;BME280;21812;55.536;37.664;2023-05-11T09:43:16;100400.44;;;18.78;34.23
35694;BME280;21812;55.536;37.664;2023-05-11T09:45:44;100395.41;;;18.63;34.15
35694;BME280;21812;55.536;37.664;2023-05-11T09:48:26;100361.13;;;18.94;35.78
35694;BME280;21812;55.536;37.664;2023-05-11T09:50:58;100383.94;;;19.70;34.79
35694;BME280;21812;55.536;37.664;2023-05-11T09:56:03;100367.91;;;20.04;32.92
35694;BME280;21812;55.536;37.664;2023-05-11T10:01:15;100357.97;;;19.63;33.47
35694;BME280;21812;55.536;37.664;2023-05-11T10:03:50;100347.19;;;19.98;32.77
35694;BME280;21812;55.536;37.664;2023-05-11T10:06:16;100343.19;;;20.53;32.10
35694;BME280;21812;55.536;37.664;2023-05-11T10:08:42;100337.06;;;20.86;29.47
35694;BME280;21812;55.536;37.664;2023-05-11T10:11:07;100334.25;;;21.27;30.86
35694;BME280;21812;55.536;37.664;2023-05-11T10:13:34;100331.97;;;21.53;31.42
35694;BME280;21812;55.536;37.664;2023-05-11T10:16:02;100329.22;;;21.86;30.69
35694;BME280;21812;55.536;37.664;2023-05-11T10:18:32;100337.81;;;22.17;29.35
35694;BME280;21812;55.536;37.664;2023-05-11T10:20:58;100336.88;;;22.29;29.51
35694;BME280;21812;55.536;37.664;2023-05-11T10:23:25;100331.25;;;22.57;28.21
35694;BME280;21812;55.536;37.664;2023-05-11T10:25:54;100329.00;;;22.76;29.94
35694;BME280;21812;55.536;37.664;2023-05-11T10:28:21;100332.75;;;22.97;27.91
35694;BME280;21812;55.536;37.664;2023-05-11T10:30:48;100323.56;;;23.31;28.31
35694;BME280;21812;55.536;37.664;2023-05-11T10:33:14;100324.03;;;23.60;27.67
35694;BME280;21812;55.536;37.664;2023-05-11T10:35:41;100321.81;;;23.89;27.26
35694;BME280;21812;55.536;37.664;2023-05-11T10:38:07;100315.03;;;23.97;25.61
35694;BME280;21812;55.536;37.664;2023-05-11T10:40:39;100321.09;;;24.09;27.10
35694;BME280;21812;55.536;37.664;2023-05-11T10:59:57;100331.44;;;22.29;28.24
35694;BME280;21812;55.536;37.664;2023-05-11T11:02:33;100331.22;;;21.40;29.87
35694;BME280;21812;55.536;37.664;2023-05-11T11:04:59;100341.91;;;20.84;31.82
35694;BME280;21812;55.536;37.664;2023-05-11T11:07:31;100350.78;;;20.27;32.07
35694;BME280;21812;55.536;37.664;2023-05-11T11:09:59;100362.72;;;19.91;32.10
35694;BME280;21812;55.536;37.664;2023-05-11T11:12:26;100370.84;;;19.56;32.95
35694;BME280;21812;55.536;37.664;2023-05-11T11:15:03;100382.78;;;19.36;33.42
35694;BME280;21812;55.536;37.664;2023-05-11T11:17:35;100377.06;;;19.02;35.95
35694;BME280;21812;55.536;37.664;2023-05-11T11:20:04;100396.16;;;18.70;39.47
35694;BME280;21812;55.536;37.664;2023-05-11T11:25:04;100387.31;;;18.45;40.00
35694;BME280;21812;55.536;37.664;2023-05-11T11:30:28;100393.50;;;18.33;42.67
35694;BME280;21812;55.536;37.664;2023-05-11T11:38:07;100387.44;;;17.94;44.07
35694;BME280;21812;55.536;37.664;2023-05-11T11:40:42;100397.47;;;17.87;41.96
35694;BME280;21812;55.536;37.664;2023-05-11T11:43:16;100376.00;;;17.67;43.56
35694;BME280;21812;55.536;37.664;2023-05-11T11:46:02;100348.22;;;17.60;43.25
35694;BME280;21812;55.536;37.664;2023-05-11T11:48:36;100354.06;;;17.32;43.07
35694;BME280;21812;55.536;37.664;2023-05-11T11:51:12;100356.03;;;17.68;42.32
35694;BME280;21812;55.536;37.664;2023-05-11T11:53:57;100361.66;;;18.35;41.47
35694;BME280;21812;55.536;37.664;2023-05-11T12:01:17;100332.19;;;22.46;34.18
35694;BME280;21812;55.536;37.664;2023-05-11T12:03:45;100340.06;;;23.89;29.85
35694;BME280;21812;55.536;37.664;2023-05-11T12:06:12;100340.50;;;24.13;29.74
35694;BME280;21812;55.536;37.664;2023-05-11T12:08:39;100331.22;;;24.77;27.30
35694;BME280;21812;55.536;37.664;2023-05-11T12:11:07;100323.91;;;25.39;27.25
35694;BME280;21812;55.536;37.664;2023-05-11T12:13:34;100334.25;;;25.16;26.34
35694;BME280;21812;55.536;37.664;2023-05-11T12:16:16;100342.25;;;24.39;27.14
35694;BME280;21812;55.536;37.664;2023-05-11T12:18:57;100345.53;;;23.19;27.82
35694;BME280;21812;55.536;37.664;2023-05-11T12:21:29;100326.81;;;22.07;29.55
35694;BME280;21812;55.536;37.664;2023-05-11T12:24:05;100338.16;;;21.82;29.79
35694;BME280;21812;55.536;37.664;2023-05-11T12:26:32;100339.84;;;21.37;31.10
35694;BME280;21812;55.536;37.664;2023-05-11T12:29:07;100341.19;;;20.89;30.85
35694;BME280;21812;55.536;37.664;2023-05-11T12:31:37;100339.84;;;20.75;31.79
35694;BME280;21812;55.536;37.664;2023-05-11T12:34:03;100335.50;;;21.19;31.45
35694;BME280;21812;55.536;37.664;2023-05-11T12:36:29;100326.84;;;22.12;30.59
35694;BME280;21812;55.536;37.664;2023-05-11T12:38:55;100326.16;;;23.48;29.41
35694;BME280;21812;55.536;37.664;2023-05-11T12:41:21;100300.28;;;24.56;27.73
35694;BME280;21812;55.536;37.664;2023-05-11T12:43:49;100306.13;;;25.06;27.01
35694;BME280;21812;55.536;37.664;2023-05-11T12:46:16;100303.09;;;25.12;27.29
35694;BME280;21812;55.536;37.664;2023-05-11T12:48:45;100312.16;;;25.33;26.76
35694;BME280;21812;55.536;37.664;2023-05-11T12:51:12;100316.50;;;25.60;26.82
35694;BME280;21812;55.536;37.664;2023-05-11T12:53:39;100320.72;;;26.28;25.73
35694;BME280;21812;55.536;37.664;2023-05-11T12:56:06;100314.53;;;25.97;26.61
35694;BME280;21812;55.536;37.664;2023-05-11T12:58:39;100309.06;;;24.78;27.17
35694;BME280;21812;55.536;37.664;2023-05-11T13:01:06;100329.03;;;24.11;27.56
35694;BME280;21812;55.536;37.664;2023-05-11T13:03:36;100300.22;;;23.08;28.06
35694;BME280;21812;55.536;37.664;2023-05-11T13:06:12;100324.63;;;23.30;30.15
35694;BME280;21812;55.536;37.664;2023-05-11T13:08:42;100326.78;;;24.61;28.45
35694;BME280;21812;55.536;37.664;2023-05-11T13:11:34;100314.25;;;26.03;26.47
35694;BME280;21812;55.536;37.664;2023-05-11T13:14:14;100300.44;;;27.28;24.97
35694;BME280;21812;55.536;37.664;2023-05-11T13:16:51;100284.88;;;27.48;23.34
35694;BME280;21812;55.536;37.664;2023-05-11T13:19:26;100260.13;;;26.89;23.18
35694;BME280;21812;55.536;37.664;2023-05-11T13:21:53;100306.66;;;25.74;24.84
35694;BME280;21812;55.536;37.664;2023-05-11T13:24:20;100315.88;;;24.61;25.87
35694;BME280;21812;55.536;37.664;2023-05-11T13:26:46;100318.66;;;24.13;26.55
35694;BME280;21812;55.536;37.664;2023-05-11T13:29:11;100316.50;;;23.72;27.39
35694;BME280;21812;55.536;37.664;2023-05-11T13:31:45;100318.69;;;23.38;27.13
35694;BME280;21812;55.536;37.664;2023-05-11T13:34:11;100319.09;;;22.92;28.04